createdAt,value
2022-11-05T00:00:22.181Z,6.60
2022-11-05T00:03:07.853Z,6.60
2022-11-05T00:05:53.285Z,6.50
2022-11-05T00:08:39.075Z,6.50
2022-11-05T00:11:05.916Z,6.40
2022-11-05T00:13:51.801Z,6.40
2022-11-05T00:16:37.252Z,6.40
2022-11-05T00:19:07.002Z,6.40
2022-11-05T00:21:54.007Z,6.40
2022-11-05T00:24:39.878Z,6.30
2022-11-05T00:27:07.216Z,6.30
2022-11-05T00:29:34.294Z,6.30
2022-11-05T00:32:01.420Z,6.30
2022-11-05T00:34:28.211Z,6.20
2022-11-05T00:36:55.696Z,6.20
2022-11-05T00:39:22.500Z,6.20
2022-11-05T00:42:09.252Z,6.20
2022-11-05T00:44:54.922Z,6.20
2022-11-05T00:47:40.424Z,6.20
2022-11-05T00:50:07.511Z,6.20
2022-11-05T00:52:52.839Z,6.20
2022-11-05T00:55:19.625Z,6.20
2022-11-05T00:57:46.393Z,6.10
2022-11-05T01:00:13.804Z,6.10
2022-11-05T01:02:40.684Z,6.20
2022-11-05T01:05:08.056Z,6.20
2022-11-05T01:07:34.853Z,6.20
2022-11-05T01:10:01.697Z,6.10
2022-11-05T01:12:28.940Z,6.10
2022-11-05T01:14:55.701Z,6.10
2022-11-05T01:17:22.503Z,6.10
2022-11-05T01:19:49.348Z,6.10
2022-11-05T01:22:16.116Z,6.00
2022-11-05T01:24:42.874Z,6.00
2022-11-05T01:27:09.633Z,6.00
2022-11-05T01:29:36.490Z,6.10
2022-11-05T01:32:03.391Z,6.10
2022-11-05T01:34:30.272Z,6.10
2022-11-05T01:36:57.067Z,6.10
2022-11-05T01:39:23.827Z,6.00
2022-11-05T01:41:50.619Z,6.00
2022-11-05T01:44:55.115Z,6.00
2022-11-05T01:47:48.100Z,6.00
2022-11-05T01:50:17.770Z,6.00
2022-11-05T01:52:44.904Z,5.90
2022-11-05T01:55:14.268Z,5.90
2022-11-05T01:57:41.141Z,5.90
2022-11-05T02:00:08.462Z,5.90
2022-11-05T02:02:35.425Z,5.80
2022-11-05T02:05:06.017Z,5.80
2022-11-05T02:07:34.018Z,5.80
2022-11-05T02:10:06.916Z,5.90
2022-11-05T02:12:34.889Z,5.80
2022-11-05T02:15:01.832Z,5.80
2022-11-05T02:18:13.446Z,5.80
2022-11-05T02:20:52.828Z,5.70
2022-11-05T02:23:56.718Z,5.70
2022-11-05T02:27:01.200Z,5.70
2022-11-05T02:29:50.873Z,5.70
2022-11-05T02:32:26.476Z,5.70
2022-11-05T02:35:28.375Z,5.70
2022-11-05T02:38:23.306Z,5.60
2022-11-05T02:41:13.850Z,5.70
2022-11-05T02:44:07.119Z,5.70
2022-11-05T02:46:46.172Z,5.60
2022-11-05T02:49:47.851Z,5.70
2022-11-05T02:52:36.722Z,5.60
2022-11-05T02:55:32.861Z,5.60
2022-11-05T02:58:02.310Z,5.60
2022-11-05T03:00:38.290Z,5.60
2022-11-05T03:03:11.207Z,5.60
2022-11-05T03:05:51.391Z,5.50
2022-11-05T03:08:46.470Z,5.60
2022-11-05T03:11:17.796Z,5.60
2022-11-05T03:14:08.786Z,5.50
2022-11-05T03:17:01.461Z,5.50
2022-11-05T03:19:41.114Z,5.40
2022-11-05T03:22:41.456Z,5.30
2022-11-05T03:25:12.609Z,5.30
2022-11-05T03:27:44.054Z,5.30
2022-11-05T03:30:12.826Z,5.40
2022-11-05T03:32:44.231Z,5.30
2022-11-05T03:35:27.967Z,5.40
2022-11-05T03:38:02.614Z,5.30
2022-11-05T03:40:34.976Z,5.30
2022-11-05T03:43:07.388Z,5.30
2022-11-05T03:45:43.484Z,5.30
2022-11-05T03:48:12.612Z,5.30
2022-11-05T03:50:53.290Z,5.30
2022-11-05T03:53:27.199Z,5.20
2022-11-05T03:56:08.015Z,5.10
2022-11-05T03:58:36.008Z,5.00
2022-11-05T04:01:04.181Z,5.10
2022-11-05T04:03:36.532Z,5.10
2022-11-05T04:06:23.184Z,5.10
2022-11-05T04:09:08.502Z,5.10
2022-11-05T04:11:54.056Z,5.00
2022-11-05T04:14:20.853Z,5.00
2022-11-05T04:17:06.051Z,5.10
2022-11-05T04:19:58.661Z,5.10
2022-11-05T04:22:45.550Z,5.00
2022-11-05T04:25:13.902Z,5.00
2022-11-05T04:27:41.205Z,5.00
2022-11-05T04:30:21.504Z,5.00
2022-11-05T04:33:29.093Z,4.90
2022-11-05T04:35:55.800Z,4.90
2022-11-05T04:38:22.549Z,4.90
2022-11-05T04:40:49.274Z,4.90
2022-11-05T04:43:19.347Z,4.80
2022-11-05T04:45:46.403Z,4.80
2022-11-05T04:48:13.363Z,4.80
2022-11-05T04:50:40.277Z,4.80
2022-11-05T04:53:07.053Z,4.80
2022-11-05T04:55:33.816Z,4.70
2022-11-05T04:58:00.577Z,4.80
2022-11-05T05:00:27.432Z,4.70
2022-11-05T05:02:54.298Z,4.70
2022-11-05T05:05:22.819Z,4.70
2022-11-05T05:07:49.528Z,4.70
2022-11-05T05:10:16.286Z,4.70
2022-11-05T05:12:43.001Z,4.80
2022-11-05T05:15:09.876Z,4.80
2022-11-05T05:17:36.619Z,4.70
2022-11-05T05:20:22.000Z,4.70
2022-11-05T05:22:53.203Z,4.70
2022-11-05T05:25:20.059Z,4.70
2022-11-05T05:27:46.801Z,4.60
2022-11-05T05:30:13.627Z,4.60
2022-11-05T05:32:40.328Z,4.50
2022-11-05T05:35:07.388Z,4.50
2022-11-05T05:37:34.097Z,4.50
2022-11-05T05:40:00.830Z,4.40
2022-11-05T05:42:27.508Z,4.30
2022-11-05T05:44:54.221Z,4.20
2022-11-05T05:47:20.959Z,4.10
2022-11-05T05:49:47.640Z,4.00
2022-11-05T05:52:14.342Z,3.80
2022-11-05T05:54:42.871Z,3.60
2022-11-05T05:57:10.250Z,3.70
2022-11-05T05:59:37.024Z,3.70
2022-11-05T06:02:03.839Z,3.70
2022-11-05T06:04:30.684Z,3.70
2022-11-05T06:06:57.394Z,3.80
2022-11-05T06:09:24.157Z,3.80
2022-11-05T06:11:50.881Z,3.70
2022-11-05T06:14:19.681Z,3.60
2022-11-05T06:16:46.426Z,3.60
2022-11-05T06:19:13.176Z,3.70
2022-11-05T06:21:39.874Z,3.70
2022-11-05T06:24:06.986Z,3.70
2022-11-05T06:26:33.737Z,3.70
2022-11-05T06:32:48.443Z,3.70
2022-11-05T06:35:15.395Z,3.70
2022-11-05T06:37:42.241Z,3.70
2022-11-05T06:40:09.667Z,3.70
2022-11-05T06:42:36.471Z,3.70
2022-11-05T06:45:03.664Z,3.70
2022-11-05T06:47:30.453Z,3.70
2022-11-05T06:49:57.486Z,3.80
2022-11-05T06:52:24.384Z,3.90
2022-11-05T06:54:51.164Z,3.90
2022-11-05T06:57:17.923Z,3.90
2022-11-05T06:59:44.702Z,3.90
2022-11-05T07:02:13.811Z,4.00
2022-11-05T07:04:40.744Z,4.00
2022-11-05T07:07:07.517Z,4.00
2022-11-05T07:09:34.393Z,4.10
2022-11-05T07:12:01.166Z,4.10
2022-11-05T07:14:28.022Z,4.20
2022-11-05T07:16:56.464Z,4.30
2022-11-05T07:19:23.228Z,4.50
2022-11-05T07:21:50.958Z,4.50
2022-11-05T07:24:17.808Z,4.60
2022-11-05T07:26:44.535Z,4.70
2022-11-05T07:29:11.331Z,4.70
2022-11-05T07:31:38.219Z,4.80
2022-11-05T07:34:05.002Z,4.80
2022-11-05T07:36:31.786Z,4.90
2022-11-05T07:39:00.565Z,4.90
2022-11-05T07:41:28.001Z,4.90
2022-11-05T07:43:54.759Z,4.90
2022-11-05T07:46:21.543Z,5.00
2022-11-05T07:48:48.306Z,5.00
2022-11-05T07:51:15.082Z,5.10
2022-11-05T07:53:45.226Z,5.10
2022-11-05T07:56:13.031Z,5.20
2022-11-05T07:58:42.910Z,5.20
2022-11-05T08:01:12.184Z,5.30
2022-11-05T08:03:39.108Z,5.40
2022-11-05T08:06:06.226Z,5.50
2022-11-05T08:08:33.188Z,5.50
2022-11-05T08:11:07.689Z,5.50
2022-11-05T08:13:35.167Z,5.60
2022-11-05T08:16:02.807Z,5.70
2022-11-05T08:18:34.076Z,5.80
2022-11-05T08:21:03.060Z,5.80
2022-11-05T08:23:31.329Z,5.90
2022-11-05T08:25:59.223Z,6.00
2022-11-05T08:28:26.750Z,6.10
2022-11-05T08:30:56.626Z,6.20
2022-11-05T08:33:24.750Z,6.30
2022-11-05T08:35:51.814Z,6.40
2022-11-05T08:38:19.687Z,6.50
2022-11-05T08:40:54.866Z,6.60
2022-11-05T08:43:22.406Z,6.60
2022-11-05T08:45:49.531Z,6.70
2022-11-05T08:48:18.135Z,6.70
2022-11-05T08:50:47.636Z,6.80
2022-11-05T08:53:15.284Z,6.90
2022-11-05T08:55:43.924Z,7.00
2022-11-05T08:58:15.069Z,7.10
2022-11-05T09:00:42.193Z,7.20
2022-11-05T09:03:09.946Z,7.20
2022-11-05T09:05:40.320Z,7.30
2022-11-05T09:08:08.769Z,7.30
2022-11-05T09:10:36.387Z,7.50
2022-11-05T09:13:04.538Z,7.50
2022-11-05T09:15:32.203Z,7.60
2022-11-05T09:17:59.719Z,7.60
2022-11-05T09:20:26.547Z,7.70
2022-11-05T09:22:53.745Z,7.80
2022-11-05T09:25:37.954Z,7.80
2022-11-05T09:31:12.614Z,7.90
2022-11-05T09:33:40.711Z,8.00
2022-11-05T09:36:07.950Z,8.10
2022-11-05T09:38:35.458Z,8.20
2022-11-05T09:41:12.646Z,8.30
2022-11-05T09:43:44.433Z,8.40
2022-11-05T09:46:17.333Z,8.40
2022-11-05T09:48:46.720Z,8.50
2022-11-05T09:51:22.406Z,8.50
2022-11-05T09:53:51.096Z,8.60
2022-11-05T09:56:31.370Z,8.70
2022-11-05T09:59:14.266Z,8.80
2022-11-05T10:01:42.563Z,8.80
2022-11-05T10:04:15.381Z,8.80
2022-11-05T10:06:45.941Z,8.90
2022-11-05T10:09:27.724Z,9.00
2022-11-05T10:12:17.021Z,9.00
2022-11-05T10:14:54.646Z,9.10
2022-11-05T10:17:24.699Z,9.20
2022-11-05T10:19:58.210Z,9.20
2022-11-05T10:22:25.047Z,9.20
2022-11-05T10:24:53.543Z,9.20
2022-11-05T10:27:34.519Z,9.20
2022-11-05T10:30:01.580Z,9.30
2022-11-05T10:32:36.761Z,9.30
2022-11-05T10:35:07.239Z,9.40
2022-11-05T10:37:39.558Z,9.50
2022-11-05T10:40:19.992Z,9.50
2022-11-05T10:43:00.895Z,9.60
2022-11-05T10:45:38.402Z,9.60
2022-11-05T10:48:26.233Z,9.60
2022-11-05T10:50:53.541Z,9.60
2022-11-05T10:55:59.919Z,9.80
2022-11-05T10:58:29.967Z,9.80
2022-11-05T11:00:56.939Z,9.90
2022-11-05T11:03:53.214Z,10.00
2022-11-05T11:06:28.580Z,10.10
2022-11-05T11:09:01.581Z,10.10
2022-11-05T11:11:39.203Z,10.10
2022-11-05T11:14:22.284Z,10.10
2022-11-05T11:16:52.872Z,10.10
2022-11-05T11:19:37.111Z,10.20
2022-11-05T11:22:04.069Z,10.20
2022-11-05T11:24:37.492Z,10.20
2022-11-05T11:27:09.527Z,10.20
2022-11-05T11:29:41.974Z,10.10
2022-11-05T11:32:15.580Z,10.00
2022-11-05T11:34:44.408Z,10.00
2022-11-05T11:37:19.388Z,10.00
2022-11-05T11:39:54.188Z,10.00
2022-11-05T11:42:33.861Z,10.10
2022-11-05T11:45:15.067Z,10.30
2022-11-05T11:47:50.703Z,10.40
2022-11-05T11:50:35.855Z,10.50
2022-11-05T11:53:21.136Z,10.50
2022-11-05T11:56:02.439Z,10.50
2022-11-05T11:58:41.846Z,10.40
2022-11-05T12:01:34.086Z,10.50
2022-11-05T12:04:28.573Z,10.50
2022-11-05T12:07:22.757Z,10.60
2022-11-05T12:10:14.558Z,10.50
2022-11-05T12:12:49.752Z,10.70
2022-11-05T12:15:22.617Z,10.80
2022-11-05T12:18:10.598Z,10.80
2022-11-05T12:20:58.235Z,10.90
2022-11-05T12:23:55.525Z,11.10
2022-11-05T12:26:43.286Z,11.20
2022-11-05T12:29:43.982Z,11.20
2022-11-05T12:32:48.368Z,11.10
2022-11-05T12:35:47.432Z,11.10
2022-11-05T12:38:31.139Z,11.00
2022-11-05T12:41:19.482Z,10.90
2022-11-05T12:43:46.255Z,10.90
2022-11-05T12:46:55.069Z,11.00
2022-11-05T12:49:43.670Z,11.00
2022-11-05T12:52:29.291Z,10.90
2022-11-05T12:55:05.338Z,10.90
2022-11-05T12:57:35.836Z,11.00
2022-11-05T13:00:16.325Z,11.00
2022-11-05T13:02:51.047Z,11.10
2022-11-05T13:05:53.124Z,11.20
2022-11-05T13:08:46.878Z,11.20
2022-11-05T13:11:47.138Z,11.20
2022-11-05T13:14:53.407Z,11.20
2022-11-05T13:17:27.019Z,11.10
2022-11-05T13:19:53.793Z,11.20
2022-11-05T13:22:39.186Z,11.40
2022-11-05T13:25:30.118Z,11.50
2022-11-05T13:28:21.713Z,11.60
2022-11-05T13:30:52.130Z,11.50
2022-11-05T13:33:33.656Z,11.40
2022-11-05T13:36:46.077Z,11.20
2022-11-05T13:39:15.602Z,11.10
2022-11-05T13:42:01.002Z,11.20
2022-11-05T13:44:46.628Z,11.20
2022-11-05T13:47:28.369Z,11.10
2022-11-05T13:50:12.308Z,11.20
2022-11-05T13:53:11.387Z,11.10
2022-11-05T13:56:01.497Z,11.10
2022-11-05T13:58:43.576Z,11.10
2022-11-05T14:01:10.449Z,11.10
2022-11-05T14:03:37.793Z,11.10
2022-11-05T14:06:09.908Z,11.10
2022-11-05T14:09:04.556Z,11.10
2022-11-05T14:11:35.083Z,11.10
2022-11-05T14:14:06.599Z,11.10
2022-11-05T14:16:51.161Z,11.10
2022-11-05T14:19:27.968Z,11.20
2022-11-05T14:21:56.456Z,11.20
2022-11-05T14:24:23.187Z,11.10
2022-11-05T14:27:02.229Z,11.10
2022-11-05T14:29:49.718Z,11.10
2022-11-05T14:32:25.421Z,11.20
2022-11-05T14:35:17.371Z,11.20
2022-11-05T14:37:59.127Z,11.00
2022-11-05T14:40:31.995Z,10.90
2022-11-05T14:43:02.804Z,10.70
2022-11-05T14:45:31.436Z,10.70
2022-11-05T14:48:00.968Z,10.60
2022-11-05T14:50:31.378Z,10.50
2022-11-05T14:53:10.513Z,10.40
2022-11-05T14:55:41.393Z,10.30
2022-11-05T14:58:30.895Z,10.30
2022-11-05T15:00:58.863Z,10.20
2022-11-05T15:03:46.024Z,10.10
2022-11-05T15:06:27.798Z,10.10
2022-11-05T15:09:03.892Z,10.00
2022-11-05T15:11:37.520Z,9.90
2022-11-05T15:14:12.879Z,9.90
2022-11-05T15:16:45.002Z,9.80
2022-11-05T15:19:39.043Z,9.70
2022-11-05T15:22:12.462Z,9.60
2022-11-05T15:24:42.322Z,9.50
2022-11-05T15:27:38.172Z,9.50
2022-11-05T15:30:15.526Z,9.40
2022-11-05T15:32:42.387Z,9.30
2022-11-05T15:35:29.786Z,9.30
2022-11-05T15:38:02.014Z,9.20
2022-11-05T15:40:31.454Z,9.20
2022-11-05T15:43:26.036Z,9.20
2022-11-05T15:46:13.993Z,9.20
2022-11-05T15:48:41.163Z,9.20
2022-11-05T15:51:10.193Z,9.20
2022-11-05T15:54:23.894Z,9.20
2022-11-05T15:56:50.307Z,9.30
2022-11-05T15:59:22.838Z,9.20
2022-11-05T16:01:51.377Z,9.30
2022-11-05T16:04:28.719Z,9.20
2022-11-05T16:07:09.082Z,9.20
2022-11-05T16:09:40.028Z,9.20
2022-11-05T16:12:18.858Z,9.20
2022-11-05T16:14:57.451Z,9.20
2022-11-05T16:17:31.402Z,9.10
2022-11-05T16:19:58.585Z,9.10
2022-11-05T16:22:25.996Z,9.00
2022-11-05T16:24:52.759Z,9.10
2022-11-05T16:27:21.596Z,9.00
2022-11-05T16:29:57.215Z,9.00
2022-11-05T16:32:31.119Z,9.00
2022-11-05T16:35:00.799Z,9.00
2022-11-05T16:37:29.864Z,8.90
2022-11-05T16:39:56.628Z,8.90
2022-11-05T16:42:23.380Z,8.90
2022-11-05T16:44:57.448Z,8.90
2022-11-05T16:47:26.395Z,8.90
2022-11-05T16:49:53.194Z,8.80
2022-11-05T16:52:19.999Z,8.90
2022-11-05T16:54:46.815Z,8.80
2022-11-05T16:57:32.444Z,8.80
2022-11-05T17:00:00.560Z,8.80
2022-11-05T17:02:28.107Z,8.80
2022-11-05T17:04:55.198Z,8.80
2022-11-05T17:07:22.201Z,8.80
2022-11-05T17:09:49.173Z,8.80
2022-11-05T17:12:16.130Z,8.90
2022-11-05T17:14:42.925Z,8.80
2022-11-05T17:17:10.715Z,8.80
2022-11-05T17:19:42.277Z,8.80
2022-11-05T17:22:09.329Z,8.70
2022-11-05T17:24:36.132Z,8.70
2022-11-05T17:27:03.021Z,8.70
2022-11-05T17:29:29.871Z,8.70
2022-11-05T17:31:56.768Z,8.70
2022-11-05T17:34:23.559Z,8.70
2022-11-05T17:36:50.344Z,8.70
2022-11-05T17:39:17.155Z,8.80
2022-11-05T17:41:44.026Z,8.80
2022-11-05T17:44:12.020Z,8.70
2022-11-05T17:46:38.748Z,8.80
2022-11-05T17:49:05.521Z,8.70
2022-11-05T17:51:34.280Z,8.70
2022-11-05T17:54:01.037Z,8.70
2022-11-05T17:56:34.398Z,8.70
2022-11-05T17:59:02.068Z,8.70
2022-11-05T18:01:32.035Z,8.70
2022-11-05T18:04:03.841Z,8.70
2022-11-05T18:06:35.210Z,8.70
2022-11-05T18:09:02.311Z,8.60
2022-11-05T18:11:29.088Z,8.60
2022-11-05T18:13:55.836Z,8.60
2022-11-05T18:16:22.892Z,8.50
2022-11-05T18:18:49.732Z,8.50
2022-11-05T18:21:16.601Z,8.40
2022-11-05T18:23:43.604Z,8.40
2022-11-05T18:26:15.190Z,8.40
2022-11-05T18:28:42.983Z,8.40
2022-11-05T18:31:20.636Z,8.40
2022-11-05T18:33:49.334Z,8.40
2022-11-05T18:36:20.602Z,8.40
2022-11-05T18:38:48.263Z,8.40
2022-11-05T18:41:15.880Z,8.30
2022-11-05T18:43:42.713Z,8.30
2022-11-05T18:46:23.865Z,8.40
2022-11-05T18:48:58.229Z,8.40
2022-11-05T18:51:26.037Z,8.50
2022-11-05T18:53:54.398Z,8.50
2022-11-05T18:56:21.244Z,8.50
2022-11-05T18:58:48.120Z,8.50
2022-11-05T19:01:22.417Z,8.50
2022-11-05T19:03:51.310Z,8.50
2022-11-05T19:06:18.516Z,8.50
2022-11-05T19:08:45.464Z,8.50
2022-11-05T19:11:17.955Z,8.50
2022-11-05T19:13:44.692Z,8.40
2022-11-05T19:16:14.966Z,8.40
2022-11-05T19:18:42.708Z,8.40
2022-11-05T19:21:15.007Z,8.50
2022-11-05T19:23:41.860Z,8.40
2022-11-05T19:26:11.783Z,8.50
2022-11-05T19:28:38.865Z,8.50
2022-11-05T19:31:05.867Z,8.50
2022-11-05T19:33:33.037Z,8.50
2022-11-05T19:36:00.015Z,8.50
2022-11-05T19:38:26.838Z,8.50
2022-11-05T19:40:53.665Z,8.50
2022-11-05T19:43:20.493Z,8.50
2022-11-05T19:45:47.351Z,8.40
2022-11-05T19:48:19.163Z,8.40
2022-11-05T19:50:46.620Z,8.40
2022-11-05T19:53:13.455Z,8.40
2022-11-05T19:55:41.192Z,8.40
2022-11-05T19:58:08.496Z,8.40
2022-11-05T20:00:35.331Z,8.30
2022-11-05T20:03:02.374Z,8.30
2022-11-05T20:05:29.280Z,8.40
2022-11-05T20:07:56.573Z,8.40
2022-11-05T20:10:23.536Z,8.30
2022-11-05T20:12:50.436Z,8.30
2022-11-05T20:15:19.623Z,8.30
2022-11-05T20:17:53.129Z,8.30
2022-11-05T20:20:20.389Z,8.30
2022-11-05T20:22:47.275Z,8.40
2022-11-05T20:25:14.111Z,8.30
2022-11-05T20:27:42.037Z,8.30
2022-11-05T20:30:09.784Z,8.30
2022-11-05T20:32:36.573Z,8.20
2022-11-05T20:35:03.440Z,8.20
2022-11-05T20:37:30.220Z,8.20
2022-11-05T20:39:57.037Z,8.10
2022-11-05T20:42:23.776Z,8.10
2022-11-05T20:44:50.631Z,8.20
2022-11-05T20:47:17.440Z,8.20
2022-11-05T20:49:44.214Z,8.20
2022-11-05T20:52:12.173Z,8.10
2022-11-05T20:54:38.946Z,8.10
2022-11-05T20:57:05.753Z,8.10
2022-11-05T20:59:32.505Z,8.10
2022-11-05T21:01:59.408Z,8.10
2022-11-05T21:04:26.290Z,8.10
2022-11-05T21:06:53.631Z,8.10
2022-11-05T21:09:20.575Z,8.20
2022-11-05T21:12:06.432Z,8.10
2022-11-05T21:14:33.213Z,8.10
2022-11-05T21:17:00.074Z,8.10
2022-11-05T21:19:26.841Z,8.10
2022-11-05T21:21:53.665Z,8.10
2022-11-05T21:24:20.723Z,8.10
2022-11-05T21:26:49.919Z,8.10
2022-11-05T21:29:17.242Z,8.10
2022-11-05T21:31:45.043Z,8.00
2022-11-05T21:34:12.516Z,8.10
2022-11-05T21:36:40.509Z,8.10
2022-11-05T21:39:12.992Z,8.00
2022-11-05T21:41:40.185Z,8.00
2022-11-05T21:44:06.966Z,8.00
2022-11-05T21:46:33.869Z,8.00
2022-11-05T21:49:00.714Z,8.00
2022-11-05T21:51:45.947Z,8.10
2022-11-05T21:54:31.474Z,8.10
2022-11-05T21:57:17.033Z,8.10
2022-11-05T21:59:51.780Z,8.20
2022-11-05T22:02:23.714Z,8.20
2022-11-05T22:04:53.593Z,8.20
2022-11-05T22:07:26.352Z,8.20
2022-11-05T22:09:53.664Z,8.20
2022-11-05T22:12:20.836Z,8.20
2022-11-05T22:14:47.778Z,8.20
2022-11-05T22:17:15.751Z,8.10
2022-11-05T22:19:42.550Z,8.20
2022-11-05T22:22:09.760Z,8.10
2022-11-05T22:24:37.319Z,8.20
2022-11-05T22:27:07.690Z,8.10
2022-11-05T22:29:35.321Z,8.10
2022-11-05T22:32:02.609Z,8.10
2022-11-05T22:34:29.464Z,8.00
2022-11-05T22:36:56.402Z,8.10
2022-11-05T22:39:23.297Z,8.00
2022-11-05T22:41:54.976Z,8.10
2022-11-05T22:44:22.499Z,8.10
2022-11-05T22:46:49.702Z,8.10
2022-11-05T22:49:16.589Z,8.20
2022-11-05T22:51:43.441Z,8.20
2022-11-05T22:54:10.637Z,8.30
2022-11-05T22:56:39.941Z,8.30
2022-11-05T22:59:08.816Z,8.30
2022-11-05T23:01:35.967Z,8.40
2022-11-05T23:04:02.891Z,8.40
2022-11-05T23:06:52.617Z,8.40
2022-11-05T23:09:42.112Z,8.40
2022-11-05T23:12:18.959Z,8.40
2022-11-05T23:14:45.896Z,8.40
2022-11-05T23:17:31.092Z,8.30
2022-11-05T23:20:16.460Z,8.30
2022-11-05T23:23:01.818Z,8.20
2022-11-05T23:25:28.593Z,8.20
2022-11-05T23:27:55.441Z,8.10
2022-11-05T23:30:25.518Z,8.10
2022-11-05T23:32:53.215Z,8.00
2022-11-05T23:35:40.220Z,8.00
2022-11-05T23:38:25.493Z,8.00
2022-11-05T23:41:10.968Z,8.00
2022-11-05T23:43:56.546Z,7.90
2022-11-05T23:46:41.732Z,7.90
2022-11-05T23:49:08.537Z,7.90
2022-11-05T23:51:35.324Z,7.80
2022-11-05T23:54:02.131Z,7.90
2022-11-05T23:56:30.848Z,7.80
2022-11-05T23:58:57.899Z,7.80
